createdAt,value
2022-10-07T00:01:12.653Z,57.98
2022-10-07T00:03:41.886Z,58.09
2022-10-07T00:06:13.803Z,57.49
2022-10-07T00:08:43.925Z,57.77
2022-10-07T00:11:15.129Z,57.85
2022-10-07T00:13:45.730Z,57.44
2022-10-07T00:16:16.520Z,57.73
2022-10-07T00:18:45.984Z,57.75
2022-10-07T00:21:17.415Z,57.65
2022-10-07T00:23:47.419Z,58.32
2022-10-07T00:26:20.067Z,57.75
2022-10-07T00:28:48.988Z,58.28
2022-10-07T00:31:19.529Z,57.86
2022-10-07T00:33:48.627Z,57.62
2022-10-07T00:36:19.831Z,57.55
2022-10-07T00:38:52.113Z,58.12
2022-10-07T00:41:23.916Z,57.83
2022-10-07T00:43:52.237Z,57.78
2022-10-07T00:46:29.927Z,58.12
2022-10-07T00:49:01.959Z,57.90
2022-10-07T00:51:31.363Z,57.78
2022-10-07T00:53:59.925Z,58.44
2022-10-07T00:56:29.810Z,58.33
2022-10-07T00:59:00.649Z,58.46
2022-10-07T01:01:28.761Z,58.12
2022-10-07T01:03:56.819Z,58.67
2022-10-07T01:06:25.496Z,58.14
2022-10-07T01:08:55.742Z,58.23
2022-10-07T01:11:41.824Z,58.39
2022-10-07T01:14:16.142Z,58.51
2022-10-07T01:16:54.178Z,58.20
2022-10-07T01:19:49.630Z,58.36
2022-10-07T01:22:34.269Z,58.46
2022-10-07T01:25:20.951Z,58.79
2022-10-07T01:27:56.233Z,58.19
2022-10-07T01:30:24.680Z,58.04
2022-10-07T01:32:59.842Z,58.59
2022-10-07T01:35:35.602Z,58.16
2022-10-07T01:38:08.242Z,57.73
2022-10-07T01:40:41.364Z,58.68
2022-10-07T01:43:11.486Z,58.79
2022-10-07T01:45:43.091Z,58.67
2022-10-07T01:48:11.377Z,59.00
2022-10-07T01:50:41.132Z,59.46
2022-10-07T01:53:29.022Z,59.10
2022-10-07T01:56:13.029Z,59.31
2022-10-07T01:58:57.701Z,59.16
2022-10-07T02:01:38.541Z,59.45
2022-10-07T02:04:25.904Z,59.27
2022-10-07T02:07:02.991Z,59.32
2022-10-07T02:09:37.550Z,59.42
2022-10-07T02:12:10.913Z,59.46
2022-10-07T02:14:46.674Z,58.94
2022-10-07T02:17:18.959Z,59.37
2022-10-07T02:19:53.880Z,59.17
2022-10-07T02:22:26.641Z,59.23
2022-10-07T02:24:59.642Z,59.47
2022-10-07T02:27:33.485Z,59.44
2022-10-07T02:30:09.491Z,59.41
2022-10-07T02:32:41.531Z,59.10
2022-10-07T02:35:17.530Z,58.85
2022-10-07T02:37:51.014Z,59.26
2022-10-07T02:40:19.575Z,58.70
2022-10-07T02:42:57.017Z,58.77
2022-10-07T02:45:33.861Z,58.53
2022-10-07T02:48:05.910Z,58.44
2022-10-07T02:50:40.704Z,58.38
2022-10-07T02:53:10.712Z,58.82
2022-10-07T02:55:39.268Z,58.46
2022-10-07T02:58:10.350Z,58.53
2022-10-07T03:00:44.557Z,58.66
2022-10-07T03:03:13.052Z,58.58
2022-10-07T03:05:42.278Z,59.03
2022-10-07T03:08:12.639Z,59.05
2022-10-07T03:10:40.722Z,58.99
2022-10-07T03:13:08.811Z,59.05
2022-10-07T03:15:42.095Z,58.75
2022-10-07T03:18:26.953Z,58.95
2022-10-07T03:20:56.329Z,58.83
2022-10-07T03:23:25.612Z,58.59
2022-10-07T03:25:54.778Z,58.65
2022-10-07T03:28:24.697Z,58.60
2022-10-07T03:30:54.232Z,58.71
2022-10-07T03:33:26.462Z,58.92
2022-10-07T03:35:55.022Z,58.45
2022-10-07T03:38:23.827Z,58.95
2022-10-07T03:40:52.146Z,58.43
2022-10-07T03:43:20.588Z,58.27
2022-10-07T03:45:52.272Z,58.70
2022-10-07T03:48:21.071Z,59.01
2022-10-07T03:50:57.075Z,58.79
2022-10-07T03:53:26.242Z,59.45
2022-10-07T03:55:54.564Z,59.01
2022-10-07T03:58:23.361Z,58.61
2022-10-07T04:00:52.283Z,58.87
2022-10-07T04:03:20.415Z,59.04
2022-10-07T04:06:01.047Z,59.09
2022-10-07T04:08:31.838Z,60.18
2022-10-07T04:11:02.250Z,60.33
2022-10-07T04:13:30.814Z,60.67
2022-10-07T04:15:59.540Z,60.67
2022-10-07T04:18:28.063Z,61.17
2022-10-07T04:21:00.699Z,60.82
2022-10-07T04:23:29.261Z,60.92
2022-10-07T04:25:58.064Z,61.01
2022-10-07T04:28:27.183Z,61.56
2022-10-07T04:30:56.029Z,61.39
2022-10-07T04:33:25.910Z,61.32
2022-10-07T04:35:53.995Z,61.55
2022-10-07T04:38:28.128Z,61.22
2022-10-07T04:40:57.119Z,61.58
2022-10-07T04:43:24.717Z,61.40
2022-10-07T04:45:55.320Z,61.37
2022-10-07T04:48:26.282Z,61.52
2022-10-07T04:50:55.443Z,61.11
2022-10-07T04:53:24.966Z,61.54
2022-10-07T04:55:53.408Z,61.49
2022-10-07T04:58:22.335Z,61.83
2022-10-07T05:00:52.408Z,62.09
2022-10-07T05:03:23.176Z,61.65
2022-10-07T05:05:52.835Z,61.61
2022-10-07T05:08:23.299Z,61.87
2022-10-07T05:10:57.519Z,61.83
2022-10-07T05:13:27.176Z,61.89
2022-10-07T05:15:56.956Z,62.17
2022-10-07T05:18:27.509Z,61.90
2022-10-07T05:20:56.190Z,62.04
2022-10-07T05:23:28.616Z,61.76
2022-10-07T05:26:05.019Z,62.01
2022-10-07T05:28:33.202Z,62.09
2022-10-07T05:31:08.003Z,62.09
2022-10-07T05:33:36.884Z,62.15
2022-10-07T05:36:05.682Z,62.12
2022-10-07T05:38:34.483Z,61.87
2022-10-07T05:41:06.056Z,61.66
2022-10-07T05:43:38.688Z,62.00
2022-10-07T05:46:08.735Z,62.13
2022-10-07T05:48:39.602Z,61.66
2022-10-07T05:51:09.653Z,61.85
2022-10-07T05:53:41.356Z,61.34
2022-10-07T05:56:12.897Z,61.81
2022-10-07T05:58:40.988Z,61.55
2022-10-07T06:01:16.022Z,61.41
2022-10-07T06:03:44.715Z,61.55
2022-10-07T06:06:12.671Z,61.60
2022-10-07T06:08:41.234Z,61.63
2022-10-07T06:11:30.917Z,61.80
2022-10-07T06:13:59.837Z,61.61
2022-10-07T06:16:28.297Z,61.50
2022-10-07T06:18:57.083Z,61.36
2022-10-07T06:21:28.599Z,61.65
2022-10-07T06:23:58.761Z,61.99
2022-10-07T06:26:29.009Z,61.74
2022-10-07T06:28:56.970Z,61.65
2022-10-07T06:31:25.881Z,62.22
2022-10-07T06:33:55.652Z,61.91
2022-10-07T06:36:24.224Z,62.09
2022-10-07T06:38:53.736Z,62.42
2022-10-07T06:41:23.145Z,62.20
2022-10-07T06:43:57.102Z,62.09
2022-10-07T06:46:27.179Z,62.19
2022-10-07T06:48:55.424Z,62.00
2022-10-07T06:51:24.224Z,61.96
2022-10-07T06:53:54.116Z,62.46
2022-10-07T06:56:23.277Z,62.40
2022-10-07T06:58:54.376Z,62.57
2022-10-07T07:01:23.550Z,62.12
2022-10-07T07:03:51.601Z,62.28
2022-10-07T07:06:19.559Z,62.03
2022-10-07T07:08:50.419Z,61.91
2022-10-07T07:11:38.400Z,61.88
2022-10-07T07:14:09.396Z,62.05
2022-10-07T07:16:37.489Z,62.04
2022-10-07T07:19:09.064Z,61.76
2022-10-07T07:21:38.529Z,61.52
2022-10-07T07:24:07.812Z,61.52
2022-10-07T07:26:36.610Z,61.20
2022-10-07T07:29:08.174Z,61.44
2022-10-07T07:31:40.581Z,62.06
2022-10-07T07:34:13.222Z,62.25
2022-10-07T07:36:46.015Z,62.12
2022-10-07T07:39:15.632Z,62.01
2022-10-07T07:41:46.945Z,61.45
2022-10-07T07:44:18.388Z,61.51
2022-10-07T07:46:49.236Z,61.20
2022-10-07T07:49:17.914Z,61.52
2022-10-07T07:51:48.285Z,63.75
2022-10-07T07:54:18.156Z,63.70
2022-10-07T07:56:47.338Z,62.77
2022-10-07T07:59:17.799Z,60.28
2022-10-07T08:01:46.613Z,62.71
2022-10-07T08:04:17.227Z,61.96
2022-10-07T08:06:47.338Z,60.42
2022-10-07T08:09:16.757Z,59.39
2022-10-07T08:11:46.248Z,59.06
2022-10-07T08:14:18.226Z,59.64
2022-10-07T08:16:47.720Z,59.94
2022-10-07T08:19:16.034Z,59.13
2022-10-07T08:21:45.211Z,58.53
2022-10-07T08:24:15.311Z,57.51
2022-10-07T08:26:44.483Z,57.88
2022-10-07T08:29:13.871Z,57.84
2022-10-07T08:31:45.214Z,57.26
2022-10-07T08:34:14.469Z,57.70
2022-10-07T08:36:47.964Z,57.18
2022-10-07T08:39:17.595Z,56.94
2022-10-07T08:42:02.835Z,57.00
2022-10-07T08:44:34.548Z,56.21
2022-10-07T08:47:17.000Z,56.88
2022-10-07T08:49:56.025Z,56.52
2022-10-07T08:52:34.163Z,56.45
2022-10-07T08:55:03.460Z,56.43
2022-10-07T08:57:52.436Z,56.20
2022-10-07T09:00:25.048Z,55.56
2022-10-07T09:03:08.731Z,56.61
2022-10-07T09:05:43.670Z,55.57
2022-10-07T09:08:21.455Z,56.33
2022-10-07T09:10:53.891Z,55.50
2022-10-07T09:13:26.775Z,56.28
2022-10-07T09:16:01.254Z,55.42
2022-10-07T09:18:37.906Z,55.20
2022-10-07T09:21:13.580Z,54.27
2022-10-07T09:23:43.604Z,54.12
2022-10-07T09:26:14.287Z,54.13
2022-10-07T09:28:43.596Z,54.57
2022-10-07T09:31:16.631Z,54.76
2022-10-07T09:33:50.537Z,54.11
2022-10-07T09:36:20.054Z,53.76
2022-10-07T09:38:52.705Z,53.03
2022-10-07T09:41:29.044Z,52.71
2022-10-07T09:44:06.625Z,53.31
2022-10-07T09:46:48.324Z,53.17
2022-10-07T09:49:43.099Z,53.66
2022-10-07T09:52:20.063Z,52.23
2022-10-07T09:54:50.903Z,51.75
2022-10-07T09:57:32.700Z,51.40
2022-10-07T10:00:25.458Z,51.77
2022-10-07T10:03:01.218Z,51.27
2022-10-07T10:05:37.727Z,51.81
2022-10-07T10:08:09.527Z,51.12
2022-10-07T10:10:38.805Z,51.98
2022-10-07T10:13:08.432Z,51.23
2022-10-07T10:15:42.845Z,51.43
2022-10-07T10:18:31.614Z,51.90
2022-10-07T10:21:20.234Z,51.25
2022-10-07T10:23:51.294Z,51.79
2022-10-07T10:26:34.595Z,51.07
2022-10-07T10:29:19.749Z,50.24
2022-10-07T10:32:16.248Z,49.41
2022-10-07T10:34:54.546Z,49.17
2022-10-07T10:37:31.613Z,49.55
2022-10-07T10:40:09.655Z,48.53
2022-10-07T10:42:45.794Z,48.78
2022-10-07T10:45:27.059Z,48.10
2022-10-07T10:48:11.743Z,48.44
2022-10-07T10:50:52.866Z,49.48
2022-10-07T10:53:35.871Z,48.03
2022-10-07T10:56:16.749Z,47.41
2022-10-07T10:59:00.092Z,47.37
2022-10-07T11:01:37.128Z,47.48
2022-10-07T11:04:22.273Z,47.87
2022-10-07T11:06:56.731Z,47.40
2022-10-07T11:09:35.475Z,47.43
2022-10-07T11:12:07.797Z,47.09
2022-10-07T11:14:49.281Z,47.79
2022-10-07T11:17:20.005Z,46.65
2022-10-07T11:19:58.893Z,45.90
2022-10-07T11:22:35.744Z,47.59
2022-10-07T11:25:16.777Z,46.33
2022-10-07T11:27:48.579Z,46.88
2022-10-07T11:30:20.885Z,46.72
2022-10-07T11:32:56.666Z,46.79
2022-10-07T11:35:32.029Z,46.28
2022-10-07T11:38:03.703Z,48.06
2022-10-07T11:40:40.206Z,47.32
2022-10-07T11:43:15.822Z,47.38
2022-10-07T11:45:52.910Z,46.75
2022-10-07T11:48:33.153Z,46.47
2022-10-07T11:51:05.931Z,46.02
2022-10-07T11:53:39.517Z,46.33
2022-10-07T11:56:24.005Z,46.47
2022-10-07T11:59:00.987Z,45.97
2022-10-07T12:01:48.913Z,46.56
2022-10-07T12:04:27.622Z,46.37
2022-10-07T12:07:34.224Z,47.10
2022-10-07T12:10:36.630Z,47.03
2022-10-07T12:13:41.892Z,46.65
2022-10-07T12:16:55.211Z,46.33
2022-10-07T12:19:24.404Z,46.18
2022-10-07T12:22:19.493Z,46.44
2022-10-07T12:25:11.559Z,46.83
2022-10-07T12:27:48.024Z,46.08
2022-10-07T12:30:42.987Z,46.86
2022-10-07T12:33:27.624Z,46.51
2022-10-07T12:35:57.649Z,46.32
2022-10-07T12:38:29.362Z,45.55
2022-10-07T12:41:32.368Z,45.56
2022-10-07T12:44:15.771Z,45.41
2022-10-07T12:46:48.280Z,44.90
2022-10-07T12:49:23.319Z,46.24
2022-10-07T12:51:55.871Z,45.29
2022-10-07T12:54:32.599Z,45.79
2022-10-07T12:57:04.496Z,46.12
2022-10-07T12:59:49.992Z,45.90
2022-10-07T13:02:51.770Z,45.81
2022-10-07T13:06:14.334Z,46.44
2022-10-07T13:09:28.501Z,46.30
2022-10-07T13:12:13.388Z,45.90
2022-10-07T13:14:54.195Z,46.00
2022-10-07T13:17:37.048Z,46.01
2022-10-07T13:20:18.786Z,45.46
2022-10-07T13:22:49.873Z,46.01
2022-10-07T13:25:22.393Z,45.64
2022-10-07T13:27:55.278Z,45.50
2022-10-07T13:30:41.650Z,45.55
2022-10-07T13:33:32.844Z,45.29
2022-10-07T13:36:13.279Z,45.23
2022-10-07T13:38:42.084Z,44.68
2022-10-07T13:41:26.973Z,44.40
2022-10-07T13:44:00.218Z,43.94
2022-10-07T13:46:33.326Z,43.76
2022-10-07T13:49:04.307Z,43.62
2022-10-07T13:51:37.212Z,43.63
2022-10-07T13:54:08.169Z,43.60
2022-10-07T13:56:42.599Z,44.21
2022-10-07T13:59:18.821Z,44.09
2022-10-07T14:01:52.830Z,44.04
2022-10-07T14:04:27.640Z,44.01
2022-10-07T14:07:00.607Z,43.93
2022-10-07T14:09:39.003Z,44.46
2022-10-07T14:12:12.841Z,45.32
2022-10-07T14:14:44.532Z,45.05
2022-10-07T14:17:24.982Z,44.84
2022-10-07T14:19:57.255Z,44.38
2022-10-07T14:22:33.483Z,44.95
2022-10-07T14:25:05.563Z,45.18
2022-10-07T14:27:55.461Z,45.37
2022-10-07T14:30:56.381Z,45.23
2022-10-07T14:34:01.476Z,45.41
2022-10-07T14:36:30.660Z,45.48
2022-10-07T14:39:00.027Z,45.08
2022-10-07T14:41:30.747Z,45.97
2022-10-07T14:44:00.641Z,45.14
2022-10-07T14:46:30.524Z,45.27
2022-10-07T14:49:02.086Z,45.13
2022-10-07T14:51:31.486Z,45.14
2022-10-07T14:54:06.196Z,45.16
2022-10-07T14:56:37.724Z,45.12
2022-10-07T14:59:08.915Z,45.56
2022-10-07T15:01:37.598Z,45.77
2022-10-07T15:04:08.317Z,46.07
2022-10-07T15:06:37.736Z,46.09
2022-10-07T15:09:06.795Z,46.25
2022-10-07T15:11:36.292Z,45.70
2022-10-07T15:14:05.211Z,46.73
2022-10-07T15:16:33.790Z,46.08
2022-10-07T15:19:03.539Z,46.32
2022-10-07T15:21:34.638Z,45.74
2022-10-07T15:24:03.540Z,45.02
2022-10-07T15:26:31.989Z,45.50
2022-10-07T15:29:02.712Z,44.90
2022-10-07T15:31:31.822Z,45.46
2022-10-07T15:34:00.588Z,45.67
2022-10-07T15:36:31.146Z,45.53
2022-10-07T15:39:02.301Z,46.00
2022-10-07T15:41:34.534Z,45.75
2022-10-07T15:44:05.951Z,46.25
2022-10-07T15:46:35.686Z,46.56
2022-10-07T15:49:05.675Z,46.60
2022-10-07T15:51:37.161Z,47.04
2022-10-07T15:54:08.376Z,46.67
2022-10-07T15:56:37.772Z,46.08
2022-10-07T15:59:06.699Z,46.00
2022-10-07T16:01:35.309Z,46.00
2022-10-07T16:04:06.131Z,46.05
2022-10-07T16:06:37.074Z,46.14
2022-10-07T16:09:08.493Z,46.18
2022-10-07T16:11:37.325Z,46.20
2022-10-07T16:14:06.129Z,46.13
2022-10-07T16:16:35.866Z,46.16
2022-10-07T16:19:05.319Z,46.38
2022-10-07T16:21:36.474Z,46.45
2022-10-07T16:24:09.890Z,46.61
2022-10-07T16:26:39.350Z,46.96
2022-10-07T16:29:28.076Z,47.08
2022-10-07T16:31:59.256Z,47.16
2022-10-07T16:34:29.274Z,47.20
2022-10-07T16:36:59.510Z,48.05
2022-10-07T16:39:29.752Z,48.27
2022-10-07T16:42:00.369Z,49.12
2022-10-07T16:44:29.894Z,49.55
2022-10-07T16:46:59.560Z,49.78
2022-10-07T16:49:30.898Z,49.77
2022-10-07T16:52:00.484Z,50.24
2022-10-07T16:54:32.435Z,50.56
2022-10-07T16:57:02.212Z,50.42
2022-10-07T16:59:31.477Z,50.87
2022-10-07T17:02:02.881Z,50.67
2022-10-07T17:04:32.216Z,50.57
2022-10-07T17:07:01.103Z,50.91
2022-10-07T17:09:31.474Z,51.09
2022-10-07T17:12:00.743Z,51.21
2022-10-07T17:14:31.826Z,51.05
2022-10-07T17:17:01.756Z,51.42
2022-10-07T17:19:38.960Z,51.31
2022-10-07T17:22:08.191Z,51.61
2022-10-07T17:24:38.328Z,51.74
2022-10-07T17:27:10.956Z,51.86
2022-10-07T17:29:39.694Z,51.84
2022-10-07T17:32:10.135Z,52.19
2022-10-07T17:34:41.971Z,52.13
2022-10-07T17:37:15.284Z,52.10
2022-10-07T17:39:45.476Z,52.50
2022-10-07T17:42:13.981Z,52.40
2022-10-07T17:44:44.105Z,52.51
2022-10-07T17:47:12.580Z,52.47
2022-10-07T17:49:41.348Z,52.94
2022-10-07T17:52:10.499Z,52.92
2022-10-07T17:54:39.939Z,52.75
2022-10-07T17:57:10.505Z,53.00
2022-10-07T17:59:40.385Z,53.04
2022-10-07T18:02:10.864Z,53.00
2022-10-07T18:04:40.221Z,53.22
2022-10-07T18:07:09.316Z,53.15
2022-10-07T18:09:39.943Z,53.45
2022-10-07T18:12:27.554Z,53.47
2022-10-07T18:15:13.043Z,53.79
2022-10-07T18:17:41.839Z,53.62
2022-10-07T18:20:15.010Z,53.99
2022-10-07T18:22:45.323Z,53.74
2022-10-07T18:25:13.675Z,53.76
2022-10-07T18:27:44.138Z,53.95
2022-10-07T18:30:13.539Z,54.01
2022-10-07T18:32:41.884Z,53.96
2022-10-07T18:35:11.380Z,53.93
2022-10-07T18:37:39.586Z,54.10
2022-10-07T18:40:09.599Z,53.84
2022-10-07T18:42:38.874Z,53.83
2022-10-07T18:45:10.425Z,54.00
2022-10-07T18:47:39.242Z,53.76
2022-10-07T18:50:08.889Z,53.68
2022-10-07T18:52:37.324Z,53.81
2022-10-07T18:55:06.719Z,53.95
2022-10-07T18:57:35.635Z,53.75
2022-10-07T19:00:04.191Z,53.74
2022-10-07T19:02:34.454Z,53.85
2022-10-07T19:05:02.774Z,53.47
2022-10-07T19:07:31.797Z,53.69
2022-10-07T19:10:00.903Z,53.35
2022-10-07T19:12:46.828Z,53.43
2022-10-07T19:15:16.212Z,53.17
2022-10-07T19:17:47.536Z,53.42
2022-10-07T19:20:19.116Z,53.59
2022-10-07T19:22:48.035Z,53.41
2022-10-07T19:25:34.216Z,53.56
2022-10-07T19:28:03.452Z,53.55
2022-10-07T19:30:32.327Z,53.27
2022-10-07T19:33:02.939Z,53.23
2022-10-07T19:35:33.501Z,53.23
2022-10-07T19:38:04.828Z,53.11
2022-10-07T19:40:35.314Z,53.20
2022-10-07T19:43:06.642Z,53.25
2022-10-07T19:45:35.957Z,53.50
2022-10-07T19:48:13.121Z,53.12
2022-10-07T19:50:47.471Z,53.43
2022-10-07T19:53:17.203Z,53.68
2022-10-07T19:55:47.211Z,53.39
2022-10-07T19:58:17.442Z,53.60
2022-10-07T20:00:46.484Z,53.62
2022-10-07T20:03:17.687Z,53.88
2022-10-07T20:05:46.867Z,53.62
2022-10-07T20:08:18.559Z,53.65
2022-10-07T20:10:47.351Z,53.74
2022-10-07T20:13:18.443Z,53.56
2022-10-07T20:15:48.228Z,53.54
2022-10-07T20:18:19.666Z,53.65
2022-10-07T20:20:49.626Z,53.64
2022-10-07T20:23:18.789Z,53.63
2022-10-07T20:25:47.583Z,53.77
2022-10-07T20:28:16.606Z,53.93
2022-10-07T20:30:46.648Z,54.02
2022-10-07T20:33:15.790Z,54.20
2022-10-07T20:35:47.624Z,54.41
2022-10-07T20:38:16.530Z,54.94
2022-10-07T20:41:14.718Z,55.19
2022-10-07T20:43:43.887Z,55.10
2022-10-07T20:46:13.598Z,55.16
2022-10-07T20:48:45.619Z,55.26
2022-10-07T20:51:17.859Z,55.12
2022-10-07T20:53:50.135Z,54.81
2022-10-07T20:56:20.385Z,54.91
2022-10-07T20:58:49.442Z,55.09
2022-10-07T21:01:18.633Z,55.26
2022-10-07T21:03:47.383Z,55.50
2022-10-07T21:06:19.460Z,55.14
2022-10-07T21:08:48.581Z,55.29
2022-10-07T21:11:18.481Z,55.39
2022-10-07T21:13:47.877Z,55.55
2022-10-07T21:16:21.623Z,55.25
2022-10-07T21:18:50.884Z,55.69
2022-10-07T21:21:23.305Z,55.44
2022-10-07T21:23:53.185Z,55.16
2022-10-07T21:26:24.017Z,55.24
2022-10-07T21:28:53.176Z,55.55
2022-10-07T21:31:24.011Z,55.54
2022-10-07T21:33:54.128Z,55.37
2022-10-07T21:36:26.430Z,55.83
2022-10-07T21:39:00.008Z,55.93
2022-10-07T21:41:33.530Z,56.20
2022-10-07T21:44:03.385Z,55.70
2022-10-07T21:46:35.786Z,55.80
2022-10-07T21:49:06.382Z,55.91
2022-10-07T21:51:37.852Z,56.29
2022-10-07T21:54:07.337Z,56.11
2022-10-07T21:56:37.472Z,56.06
2022-10-07T21:59:07.106Z,56.11
2022-10-07T22:01:36.943Z,56.35
2022-10-07T22:04:07.600Z,56.72
2022-10-07T22:06:55.249Z,56.61
2022-10-07T22:09:24.633Z,56.12
2022-10-07T22:11:53.552Z,56.61
2022-10-07T22:14:24.049Z,56.31
2022-10-07T22:16:53.488Z,56.53
2022-10-07T22:19:24.120Z,56.47
2022-10-07T22:21:55.030Z,56.51
2022-10-07T22:24:24.774Z,56.62
2022-10-07T22:26:53.359Z,56.56
2022-10-07T22:29:23.979Z,56.28
2022-10-07T22:31:53.811Z,56.77
2022-10-07T22:34:43.619Z,56.75
2022-10-07T22:37:14.241Z,57.17
2022-10-07T22:39:43.503Z,56.48
2022-10-07T22:42:12.657Z,56.52
2022-10-07T22:44:42.550Z,56.58
2022-10-07T22:47:12.432Z,56.67
2022-10-07T22:49:42.232Z,57.21
2022-10-07T22:52:11.722Z,57.21
2022-10-07T22:54:43.541Z,57.00
2022-10-07T22:57:12.694Z,56.82
2022-10-07T22:59:41.867Z,57.46
2022-10-07T23:02:10.806Z,56.98
2022-10-07T23:04:40.530Z,57.26
2022-10-07T23:07:09.203Z,57.39
2022-10-07T23:09:38.846Z,57.63
2022-10-07T23:12:09.455Z,57.76
2022-10-07T23:14:38.844Z,57.73
2022-10-07T23:17:08.130Z,57.82
2022-10-07T23:19:36.822Z,57.89
2022-10-07T23:22:06.490Z,58.00
2022-10-07T23:24:35.884Z,57.49
2022-10-07T23:27:05.378Z,58.08
2022-10-07T23:29:35.382Z,57.78
2022-10-07T23:32:04.930Z,57.82
2022-10-07T23:34:34.317Z,57.77
2022-10-07T23:37:03.128Z,57.96
2022-10-07T23:39:32.158Z,58.27
2022-10-07T23:42:01.818Z,58.16
2022-10-07T23:44:31.563Z,58.36
2022-10-07T23:47:02.053Z,58.60
2022-10-07T23:49:31.916Z,58.84
2022-10-07T23:52:01.814Z,58.68
2022-10-07T23:54:30.514Z,58.62
2022-10-07T23:57:00.254Z,58.24
2022-10-07T23:59:29.684Z,58.29
